Time;durP1;ratioP1;P1;durP2;ratioP2;P2;SDS_P1;SDS_P2;PMS_P1;PMS_P2;Temp;Humidity;BMP_temperature;BMP_pressure;BME280_temperature;BME280_humidity;BME280_pressure;Samples;Min_cycle;Max_cycle;Signal;HPM_P1;HPM_P2
2023/10/29 00:01:01;;;;;;;6.25;2.85;;;;;;;7.92;100.00;95414.75;4974581;28;20038;-69
2023/10/29 00:03:26;;;;;;;11.25;2.90;;;;;;;8.00;100.00;95421.06;4979714;28;20054;-71
2023/10/29 00:05:52;;;;;;;6.30;3.22;;;;;;;8.14;100.00;95406.69;4982497;28;20039;-70
2023/10/29 00:08:18;;;;;;;10.20;3.65;;;;;;;8.29;100.00;95408.34;4963067;28;20486;-70
2023/10/29 00:10:43;;;;;;;7.70;2.95;;;;;;;8.36;100.00;95405.66;4968656;28;20051;-70
2023/10/29 00:13:09;;;;;;;6.75;3.33;;;;;;;8.37;100.00;95404.50;4964008;28;20038;-71
2023/10/29 00:15:34;;;;;;;8.95;3.47;;;;;;;8.39;100.00;95406.81;4986217;28;20116;-69
2023/10/29 00:18:01;;;;;;;7.18;3.35;;;;;;;8.41;100.00;95405.28;4987902;28;20062;-70
2023/10/29 00:20:26;;;;;;;6.97;3.17;;;;;;;8.39;100.00;95396.72;4981566;28;20058;-70
2023/10/29 00:22:52;;;;;;;8.20;3.45;;;;;;;8.34;100.00;95399.81;4987368;28;20122;-69
2023/10/29 00:25:18;;;;;;;9.70;3.50;;;;;;;8.32;100.00;95399.41;4966117;28;20042;-71
2023/10/29 00:27:43;;;;;;;5.20;3.25;;;;;;;8.27;100.00;95394.31;4980097;28;20039;-70
2023/10/29 00:30:09;;;;;;;7.38;3.60;;;;;;;8.26;100.00;95394.69;4987805;28;20038;-67
2023/10/29 00:32:34;;;;;;;7.75;3.67;;;;;;;8.26;100.00;95392.75;4997929;28;20046;-71
2023/10/29 00:35:00;;;;;;;6.68;2.95;;;;;;;8.27;100.00;95390.81;5002386;28;20092;-69
2023/10/29 00:37:25;;;;;;;7.00;2.72;;;;;;;8.23;100.00;95391.56;4993599;28;20060;-70
2023/10/29 00:39:51;;;;;;;8.02;3.20;;;;;;;7.88;100.00;95388.66;4986911;28;20034;-70
2023/10/29 00:42:16;;;;;;;9.32;3.65;;;;;;;7.26;100.00;95382.03;4981664;28;20520;-67
2023/10/29 00:44:41;;;;;;;10.10;3.67;;;;;;;7.06;100.00;95386.91;4979015;28;20034;-69
2023/10/29 00:47:08;;;;;;;9.25;5.03;;;;;;;7.00;100.00;95381.00;4974963;28;20044;-70
2023/10/29 00:49:35;;;;;;;8.75;4.10;;;;;;;7.10;100.00;95378.78;4987169;28;20453;-69
2023/10/29 00:52:00;;;;;;;7.28;3.75;;;;;;;7.16;100.00;95380.75;4986600;28;20045;-69
2023/10/29 00:54:26;;;;;;;12.10;3.90;;;;;;;7.17;100.00;95374.16;4981495;28;20034;-70
2023/10/29 00:56:53;;;;;;;9.50;4.18;;;;;;;7.00;100.00;95383.72;4985874;28;20047;-70
2023/10/29 00:59:20;;;;;;;7.40;3.60;;;;;;;7.06;100.00;95382.25;4981860;28;20041;-67
2023/10/29 01:01:46;;;;;;;9.57;3.75;;;;;;;7.19;100.00;95371.84;4988801;28;20045;-72
2023/10/29 01:04:11;;;;;;;7.07;3.97;;;;;;;7.23;100.00;95394.44;4982234;28;20038;-70
2023/10/29 01:06:38;;;;;;;9.65;4.30;;;;;;;7.41;100.00;95388.34;4986219;28;20038;-68
2023/10/29 01:09:06;;;;;;;14.43;4.53;;;;;;;7.26;100.00;95385.53;4983374;28;20540;-77
2023/10/29 01:11:32;;;;;;;6.90;3.53;;;;;;;7.25;100.00;95375.00;4984480;28;20042;-69
2023/10/29 01:13:58;;;;;;;5.82;3.22;;;;;;;7.17;100.00;95365.22;4977223;28;20035;-69
2023/10/29 01:16:23;;;;;;;6.45;3.03;;;;;;;7.24;100.00;95387.84;4982970;28;20054;-72
2023/10/29 01:18:48;;;;;;;6.47;3.75;;;;;;;7.35;100.00;95382.47;4979777;28;20058;-72
2023/10/29 01:21:14;;;;;;;11.93;3.15;;;;;;;7.48;100.00;95385.69;4983057;28;20066;-69
2023/10/29 01:23:39;;;;;;;8.40;3.70;;;;;;;7.45;100.00;95394.59;4980693;28;22257;-69
2023/10/29 01:26:05;;;;;;;6.00;3.47;;;;;;;7.53;100.00;95384.56;4986723;28;20034;-72
2023/10/29 01:28:31;;;;;;;12.18;3.67;;;;;;;7.53;100.00;95374.44;4985578;28;20034;-70
2023/10/29 01:30:57;;;;;;;5.68;3.10;;;;;;;7.60;100.00;95377.22;4986792;28;20106;-69
2023/10/29 01:33:22;;;;;;;5.82;3.00;;;;;;;7.59;100.00;95380.31;4982586;28;20508;-70
2023/10/29 01:35:48;;;;;;;6.85;3.05;;;;;;;7.37;100.00;95382.88;4997238;28;20274;-70
2023/10/29 01:38:13;;;;;;;6.50;2.88;;;;;;;7.43;100.00;95373.19;4990948;28;20045;-71
2023/10/29 01:40:38;;;;;;;7.43;3.47;;;;;;;7.33;100.00;95373.09;4984833;28;20050;-68
2023/10/29 01:43:04;;;;;;;7.78;3.42;;;;;;;7.26;100.00;95363.75;4975500;28;20157;-78
2023/10/29 01:45:29;;;;;;;9.18;3.40;;;;;;;7.15;100.00;95360.16;4986292;28;20051;-69
2023/10/29 01:47:54;;;;;;;9.10;3.63;;;;;;;7.02;100.00;95358.88;4990835;28;20053;-70
2023/10/29 01:50:20;;;;;;;8.07;3.10;;;;;;;6.94;100.00;95368.91;4982701;28;20519;-72
2023/10/29 01:52:45;;;;;;;6.20;3.20;;;;;;;7.05;100.00;95363.56;4991960;28;20125;-74
2023/10/29 01:55:10;;;;;;;5.10;3.65;;;;;;;6.70;100.00;95349.25;4972818;28;20042;-70
2023/10/29 01:57:36;;;;;;;6.20;3.72;;;;;;;6.44;100.00;95355.59;4989835;28;20054;-70
2023/10/29 02:00:06;;;;;;;7.93;4.45;;;;;;;6.47;100.00;95365.75;4978105;28;20043;-78
2023/10/29 02:02:32;;;;;;;7.45;3.60;;;;;;;6.55;100.00;95366.59;4974889;28;20129;-71
2023/10/29 02:04:57;;;;;;;14.13;3.95;;;;;;;6.68;100.00;95354.31;4975894;28;20064;-70
2023/10/29 02:07:23;;;;;;;5.50;3.10;;;;;;;6.82;100.00;95341.97;4964790;28;20977;-69
2023/10/29 02:09:49;;;;;;;6.40;3.45;;;;;;;6.90;100.00;95346.34;4985385;28;20121;-68
2023/10/29 02:12:14;;;;;;;8.80;3.53;;;;;;;6.76;100.00;95343.47;4978417;28;20048;-68
2023/10/29 02:14:40;;;;;;;8.40;3.53;;;;;;;6.80;100.00;95345.06;4980166;28;20097;-72
2023/10/29 02:17:05;;;;;;;7.15;3.15;;;;;;;6.88;100.00;95338.53;4979768;28;20140;-69
2023/10/29 02:19:31;;;;;;;7.03;3.38;;;;;;;6.83;100.00;95330.72;4984649;28;20046;-69
2023/10/29 02:21:56;;;;;;;9.65;3.45;;;;;;;6.87;100.00;95322.59;4983373;28;20502;-72
2023/10/29 02:24:22;;;;;;;7.60;3.53;;;;;;;6.96;100.00;95317.59;4982844;28;20054;-71
2023/10/29 02:26:47;;;;;;;8.90;3.10;;;;;;;6.88;100.00;95310.56;4987785;28;20133;-71
2023/10/29 02:29:13;;;;;;;13.38;3.10;;;;;;;6.68;100.00;95294.44;4981920;28;20042;-70
2023/10/29 02:31:38;;;;;;;10.45;3.30;;;;;;;6.74;100.00;95292.16;4990500;28;20070;-73
2023/10/29 02:34:04;;;;;;;8.68;3.22;;;;;;;6.77;100.00;95293.31;4979178;28;20089;-77
2023/10/29 02:36:29;;;;;;;5.47;3.08;;;;;;;6.66;100.00;95282.34;4992988;28;20078;-68
2023/10/29 02:38:56;;;;;;;5.63;3.22;;;;;;;6.67;100.00;95297.53;4996339;28;20047;-71
2023/10/29 02:41:22;;;;;;;5.97;2.97;;;;;;;6.63;100.00;95307.63;4972405;28;20062;-68
2023/10/29 02:43:47;;;;;;;6.85;3.20;;;;;;;6.47;100.00;95305.91;4984002;28;20038;-72
2023/10/29 02:46:13;;;;;;;6.10;3.25;;;;;;;6.46;100.00;95300.84;4978114;28;20046;-71
2023/10/29 02:48:38;;;;;;;5.82;3.10;;;;;;;6.61;100.00;95288.94;4965143;28;20394;-68
2023/10/29 02:51:04;;;;;;;13.65;3.20;;;;;;;6.65;100.00;95291.69;4979866;28;20487;-77
2023/10/29 02:53:30;;;;;;;4.40;3.00;;;;;;;6.61;100.00;95286.22;4972769;28;20509;-69
2023/10/29 02:56:00;;;;;;;5.97;3.17;;;;;;;6.55;100.00;95282.25;4979106;28;20449;-68
2023/10/29 02:58:25;;;;;;;6.82;3.53;;;;;;;6.51;100.00;95276.00;4976308;28;20045;-72
2023/10/29 03:00:50;;;;;;;7.47;3.08;;;;;;;6.54;100.00;95271.78;4995054;28;20106;-67
2023/10/29 03:03:16;;;;;;;5.20;3.38;;;;;;;6.48;100.00;95282.19;4979536;28;20409;-69
2023/10/29 03:05:41;;;;;;;5.65;3.30;;;;;;;6.40;100.00;95278.63;4973793;28;20047;-69
2023/10/29 03:08:06;;;;;;;4.07;2.78;;;;;;;6.36;100.00;95279.78;4973139;28;20039;-67
2023/10/29 03:10:32;;;;;;;5.63;3.20;;;;;;;6.36;100.00;95277.06;4989199;28;20042;-70
2023/10/29 03:12:58;;;;;;;10.02;5.22;;;;;;;6.29;100.00;95292.13;4977469;28;20437;-70
2023/10/29 03:15:24;;;;;;;9.85;4.65;;;;;;;6.21;100.00;95287.78;4971803;28;20034;-78
2023/10/29 03:17:49;;;;;;;9.32;3.45;;;;;;;6.04;100.00;95293.81;4983625;28;20416;-73
2023/10/29 03:20:16;;;;;;;6.25;3.90;;;;;;;5.98;100.00;95300.69;4976492;28;20495;-69
2023/10/29 03:22:42;;;;;;;7.10;2.80;;;;;;;6.04;100.00;95318.25;4979870;28;20046;-70
2023/10/29 03:25:08;;;;;;;5.10;2.72;;;;;;;6.03;100.00;95314.78;4974444;28;20043;-72
2023/10/29 03:27:34;;;;;;;6.70;2.60;;;;;;;6.08;100.00;95327.22;4980798;28;20109;-74
2023/10/29 03:30:00;;;;;;;8.05;2.35;;;;;;;6.11;100.00;95340.88;4983227;28;20034;-70
2023/10/29 03:32:25;;;;;;;6.43;2.40;;;;;;;6.16;100.00;95344.41;4979745;28;20078;-69
2023/10/29 03:34:51;;;;;;;7.78;2.28;;;;;;;6.20;100.00;95362.34;4983770;28;20038;-71
2023/10/29 03:37:16;;;;;;;5.35;2.20;;;;;;;6.32;100.00;95370.25;4979303;28;20468;-71
2023/10/29 03:39:42;;;;;;;5.25;2.25;;;;;;;6.36;100.00;95383.88;4993623;28;20442;-72
2023/10/29 03:42:07;;;;;;;4.88;2.22;;;;;;;6.39;100.00;95391.31;5002662;28;20030;-72
2023/10/29 03:44:32;;;;;;;5.68;2.30;;;;;;;6.54;100.00;95402.34;5001833;28;20073;-70
2023/10/29 03:46:58;;;;;;;5.22;2.38;;;;;;;6.60;100.00;95411.72;4987691;28;20149;-70
2023/10/29 03:49:24;;;;;;;5.47;2.67;;;;;;;6.80;100.00;95401.44;4988581;28;20308;-72
2023/10/29 03:51:49;;;;;;;5.50;2.97;;;;;;;6.83;100.00;95398.75;5001757;28;20042;-72
2023/10/29 03:54:15;;;;;;;8.15;2.97;;;;;;;6.93;100.00;95389.13;5002327;28;20038;-71
2023/10/29 03:56:40;;;;;;;8.13;3.00;;;;;;;6.87;100.00;95390.63;4986931;28;20049;-70
2023/10/29 03:59:06;;;;;;;11.15;3.55;;;;;;;6.89;100.00;95382.88;4986519;28;20089;-74
2023/10/29 04:01:32;;;;;;;9.55;3.50;;;;;;;6.93;100.00;95374.72;4979920;28;20479;-71
2023/10/29 04:03:58;;;;;;;9.63;3.60;;;;;;;6.93;100.00;95366.56;4991634;28;20552;-72
2023/10/29 04:06:23;;;;;;;6.97;3.60;;;;;;;6.95;100.00;95359.59;4982074;28;20126;-72
2023/10/29 04:08:49;;;;;;;5.03;3.20;;;;;;;6.87;100.00;95347.84;5002165;28;20041;-74
2023/10/29 04:11:14;;;;;;;6.47;3.10;;;;;;;6.77;100.00;95340.41;4983130;28;20097;-71
2023/10/29 04:13:40;;;;;;;8.13;3.28;;;;;;;6.72;100.00;95354.34;4985829;28;20046;-69
2023/10/29 04:16:06;;;;;;;5.22;2.63;;;;;;;6.61;100.00;95350.72;4983252;28;20473;-71
2023/10/29 04:18:33;;;;;;;6.55;3.30;;;;;;;6.55;100.00;95347.53;5001261;28;20046;-72
2023/10/29 04:21:02;;;;;;;9.27;3.28;;;;;;;6.57;100.00;95356.13;4979207;28;20046;-70
2023/10/29 04:23:27;;;;;;;9.25;2.90;;;;;;;6.53;100.00;95343.66;4984170;28;20073;-71
2023/10/29 04:25:53;;;;;;;5.18;3.20;;;;;;;6.57;100.00;95347.19;4986540;28;20070;-74
2023/10/29 04:28:18;;;;;;;7.68;3.40;;;;;;;6.51;100.00;95347.50;4981557;28;20498;-70
2023/10/29 04:30:44;;;;;;;7.00;3.20;;;;;;;6.36;100.00;95347.75;4992746;28;20082;-71
2023/10/29 04:33:09;;;;;;;6.65;2.97;;;;;;;6.20;100.00;95348.75;4967508;28;20049;-72
2023/10/29 04:35:35;;;;;;;6.40;2.92;;;;;;;6.13;100.00;95351.38;4994186;28;20042;-71
2023/10/29 04:38:00;;;;;;;8.27;3.28;;;;;;;6.06;100.00;95348.56;5000828;28;20049;-70
2023/10/29 04:40:25;;;;;;;10.18;3.40;;;;;;;5.81;100.00;95350.94;4988369;28;20046;-73
2023/10/29 04:42:51;;;;;;;6.60;3.15;;;;;;;5.83;100.00;95343.19;4981779;28;20041;-69
2023/10/29 04:45:16;;;;;;;8.50;3.50;;;;;;;5.89;100.00;95347.19;4984557;28;20046;-69
2023/10/29 04:47:42;;;;;;;5.45;3.20;;;;;;;5.86;100.00;95340.53;4987333;28;20141;-71
2023/10/29 04:50:07;;;;;;;7.63;3.22;;;;;;;5.85;100.00;95332.75;4979861;28;20035;-69
2023/10/29 04:52:33;;;;;;;11.40;4.10;;;;;;;5.89;100.00;95333.59;4984415;28;20116;-70
2023/10/29 04:55:01;;;;;;;7.72;4.20;;;;;;;5.79;100.00;95337.72;4985244;28;20046;-69
2023/10/29 04:57:28;;;;;;;5.35;3.55;;;;;;;5.85;100.00;95333.56;4980391;28;20038;-70
2023/10/29 04:59:53;;;;;;;8.57;3.53;;;;;;;5.97;100.00;95329.81;4985957;28;20089;-70
2023/10/29 05:02:19;;;;;;;7.30;3.50;;;;;;;6.00;100.00;95329.09;4980680;28;20042;-70
2023/10/29 05:04:44;;;;;;;6.07;3.20;;;;;;;5.97;100.00;95326.34;4981616;28;20038;-71
2023/10/29 05:07:09;;;;;;;8.18;3.22;;;;;;;5.84;100.00;95321.09;4980589;28;20129;-70
2023/10/29 05:09:35;;;;;;;9.40;3.28;;;;;;;5.90;100.00;95313.41;4984649;28;20492;-70
2023/10/29 05:12:01;;;;;;;4.28;3.13;;;;;;;5.78;100.00;95313.63;4984479;28;20096;-73
2023/10/29 05:14:26;;;;;;;6.18;3.20;;;;;;;5.70;100.00;95315.50;4984624;28;20042;-71
2023/10/29 05:16:52;;;;;;;16.15;7.95;;;;;;;5.53;100.00;95309.47;4988920;28;20046;-69
2023/10/29 05:19:17;;;;;;;8.25;3.88;;;;;;;5.37;100.00;95308.84;4975964;28;20104;-70
2023/10/29 05:21:43;;;;;;;7.07;3.13;;;;;;;5.19;100.00;95310.53;4982556;28;20129;-71
2023/10/29 05:24:09;;;;;;;4.28;3.25;;;;;;;5.12;100.00;95303.84;4966975;28;20077;-69
2023/10/29 05:26:36;;;;;;;5.10;3.25;;;;;;;5.24;100.00;95297.44;4975601;28;20050;-70
2023/10/29 05:29:03;;;;;;;9.52;3.40;;;;;;;5.39;100.00;95300.34;4999147;28;20038;-75
2023/10/29 05:31:29;;;;;;;5.30;3.22;;;;;;;5.44;100.00;95289.13;4976219;28;20497;-72
2023/10/29 05:33:54;;;;;;;7.03;3.13;;;;;;;5.39;100.00;95292.19;4968676;28;20047;-71
2023/10/29 05:36:19;;;;;;;6.15;3.53;;;;;;;5.17;100.00;95289.19;4970885;28;20069;-72
2023/10/29 05:38:45;;;;;;;6.65;3.40;;;;;;;4.98;100.00;95277.25;4983518;28;20049;-72
2023/10/29 05:41:10;;;;;;;8.38;4.35;;;;;;;4.77;100.00;95279.66;4982464;28;20397;-70
2023/10/29 05:43:37;;;;;;;8.27;3.65;;;;;;;4.76;100.00;95294.38;4987767;28;20486;-70
2023/10/29 05:46:05;;;;;;;6.40;3.55;;;;;;;4.77;100.00;95304.88;4996498;28;20041;-77
2023/10/29 05:48:30;;;;;;;6.47;3.60;;;;;;;4.74;100.00;95305.56;5003543;28;20050;-70
2023/10/29 05:50:56;;;;;;;6.75;2.85;;;;;;;4.77;100.00;95302.16;4984672;28;20034;-70
2023/10/29 05:53:21;;;;;;;4.43;2.80;;;;;;;4.93;100.00;95301.22;4978086;28;20061;-71
2023/10/29 05:55:47;;;;;;;6.28;2.72;;;;;;;5.01;100.00;95310.28;4977522;28;20074;-70
2023/10/29 05:58:12;;;;;;;5.15;3.28;;;;;;;5.02;100.00;95318.03;4980487;28;20073;-70
2023/10/29 06:00:37;;;;;;;11.85;3.95;;;;;;;4.96;100.00;95328.41;4984069;28;20358;-72
2023/10/29 06:03:03;;;;;;;8.73;4.03;;;;;;;4.93;100.00;95321.00;4980239;28;20493;-76
2023/10/29 06:05:29;;;;;;;8.02;3.95;;;;;;;5.01;100.00;95313.75;4982357;28;20038;-70
2023/10/29 06:07:54;;;;;;;7.75;3.60;;;;;;;5.07;100.00;95316.94;4983542;28;20030;-69
2023/10/29 06:10:19;;;;;;;7.75;3.50;;;;;;;5.12;100.00;95316.63;4981338;28;20057;-70
2023/10/29 06:12:45;;;;;;;6.05;2.67;;;;;;;5.08;100.00;95318.53;4986241;28;20046;-71
2023/10/29 06:15:11;;;;;;;10.93;3.13;;;;;;;4.97;100.00;95323.78;4982232;28;20045;-71
2023/10/29 06:17:37;;;;;;;6.78;2.78;;;;;;;4.94;100.00;95322.56;4985998;28;20047;-70
2023/10/29 06:20:04;;;;;;;6.68;3.60;;;;;;;5.05;100.00;95320.00;4975700;28;20041;-78
2023/10/29 06:22:32;;;;;;;39.97;19.45;;;;;;;5.07;100.00;95334.00;4991670;28;20042;-74
2023/10/29 06:24:57;;;;;;;35.85;17.33;;;;;;;5.13;100.00;95339.91;4981763;28;20039;-69
2023/10/29 06:27:23;;;;;;;22.63;13.60;;;;;;;5.21;100.00;95340.81;4972107;28;20034;-70
2023/10/29 06:29:48;;;;;;;33.13;17.25;;;;;;;5.21;100.00;95347.00;4980161;28;20030;-73
2023/10/29 06:32:13;;;;;;;20.23;8.25;;;;;;;5.40;100.00;95346.09;4981001;28;20210;-70
2023/10/29 06:34:39;;;;;;;9.05;5.45;;;;;;;5.50;100.00;95350.91;4990570;28;20105;-71
2023/10/29 06:37:04;;;;;;;9.57;3.72;;;;;;;5.59;100.00;95360.75;4975690;28;20133;-71
2023/10/29 06:39:31;;;;;;;7.55;2.92;;;;;;;5.73;100.00;95355.50;4981236;28;20057;-70
2023/10/29 06:41:56;;;;;;;4.90;2.70;;;;;;;5.86;100.00;95356.06;4975793;28;20038;-69
2023/10/29 06:44:21;;;;;;;4.20;2.50;;;;;;;5.96;100.00;95370.97;4978657;28;20068;-70
2023/10/29 06:46:47;;;;;;;3.95;2.85;;;;;;;6.05;100.00;95387.75;4983646;28;20100;-70
2023/10/29 06:49:12;;;;;;;5.13;2.40;;;;;;;6.19;100.00;95376.28;5004974;28;20057;-72
2023/10/29 06:51:38;;;;;;;5.40;2.40;;;;;;;6.35;100.00;95393.19;4978637;28;20042;-68
2023/10/29 06:54:05;;;;;;;4.38;2.33;;;;;;;6.58;100.00;95378.69;4971541;28;20030;-76
2023/10/29 06:56:30;;;;;;;4.53;2.53;;;;;;;6.09;100.00;95383.94;4982075;28;20050;-69
2023/10/29 06:58:56;;;;;;;4.03;2.80;;;;;;;5.98;100.00;95374.88;4983037;28;20080;-72
2023/10/29 07:01:21;;;;;;;9.95;2.88;;;;;;;6.42;100.00;95368.78;4977553;28;20099;-71
2023/10/29 07:03:46;;;;;;;7.32;3.22;;;;;;;5.67;100.00;95356.97;4980201;28;20043;-70
2023/10/29 07:06:14;;;;;;;5.57;3.63;;;;;;;5.58;100.00;95359.94;4978501;28;20121;-69
2023/10/29 07:08:39;;;;;;;17.08;3.95;;;;;;;6.08;100.00;95365.28;4982360;28;20129;-71
2023/10/29 07:11:05;;;;;;;6.55;2.97;;;;;;;6.73;100.00;95355.09;4976927;28;20038;-73
2023/10/29 07:13:32;;;;;;;8.65;3.50;;;;;;;6.65;100.00;95357.00;4978980;28;20046;-70
2023/10/29 07:15:59;;;;;;;11.63;4.25;;;;;;;7.08;100.00;95366.31;4975487;28;20039;-69
2023/10/29 07:18:25;;;;;;;7.00;3.08;;;;;;;7.70;100.00;95372.97;4965742;28;20043;-70
2023/10/29 07:20:52;;;;;;;10.88;2.30;;;;;;;8.41;100.00;95385.41;4980144;28;20052;-70
2023/10/29 07:23:18;;;;;;;12.00;4.45;;;;;;;9.47;100.00;95385.19;4993655;28;20066;-71
2023/10/29 07:25:44;;;;;;;9.70;4.32;;;;;;;10.36;100.00;95406.16;4981039;28;20073;-71
2023/10/29 07:28:10;;;;;;;9.48;4.32;;;;;;;10.48;100.00;95410.41;4978284;28;20042;-71
2023/10/29 07:30:35;;;;;;;11.27;4.38;;;;;;;10.58;100.00;95419.75;4981575;28;20066;-70
2023/10/29 07:33:01;;;;;;;14.57;6.13;;;;;;;11.01;100.00;95422.28;4973832;28;20448;-70
2023/10/29 07:35:26;;;;;;;5.30;2.42;;;;;;;11.33;100.00;95422.06;4977616;28;20046;-72
2023/10/29 07:37:51;;;;;;;4.97;2.60;;;;;;;11.72;100.00;95428.41;4973927;28;20561;-71
2023/10/29 07:40:17;;;;;;;9.55;2.15;;;;;;;12.07;100.00;95429.31;4967418;28;20038;-71
2023/10/29 07:42:42;;;;;;;6.82;4.70;;;;;;;12.00;100.00;95430.94;4981666;28;20070;-71
2023/10/29 07:45:08;;;;;;;11.85;8.95;;;;;;;11.03;100.00;95409.72;4978096;28;20053;-69
2023/10/29 07:47:33;;;;;;;4.53;2.60;;;;;;;11.99;100.00;95412.13;4996422;28;20129;-72
2023/10/29 07:49:58;;;;;;;7.22;3.08;;;;;;;12.81;100.00;95408.44;4979107;28;20042;-71
2023/10/29 07:52:24;;;;;;;4.80;2.90;;;;;;;12.67;100.00;95402.38;4994618;28;20108;-72
2023/10/29 07:54:49;;;;;;;6.22;3.00;;;;;;;13.13;98.39;95406.47;4982292;28;20048;-71
2023/10/29 07:57:14;;;;;;;5.32;2.38;;;;;;;13.11;96.24;95409.63;4977122;28;20045;-70
2023/10/29 07:59:40;;;;;;;6.05;2.83;;;;;;;12.95;98.33;95420.47;4963496;28;20057;-69
2023/10/29 08:02:05;;;;;;;7.13;2.42;;;;;;;12.78;98.96;95424.97;4976539;28;20494;-71
2023/10/29 08:04:31;;;;;;;4.93;2.40;;;;;;;12.74;99.00;95430.50;4980612;28;20197;-70
2023/10/29 08:06:56;;;;;;;3.60;2.15;;;;;;;12.60;98.57;95430.69;4982679;28;20126;-70
2023/10/29 08:09:22;;;;;;;7.53;2.40;;;;;;;12.78;99.62;95417.53;4969788;28;20399;-71
2023/10/29 08:11:48;;;;;;;7.88;2.10;;;;;;;12.94;98.51;95422.41;4996675;28;20116;-72
2023/10/29 08:14:13;;;;;;;4.63;2.30;;;;;;;13.39;95.46;95421.41;4978178;28;20070;-70
2023/10/29 08:16:39;;;;;;;2.92;1.90;;;;;;;14.02;91.87;95422.75;4981218;28;20604;-70
2023/10/29 08:19:05;;;;;;;5.00;1.90;;;;;;;14.48;87.62;95424.66;4972932;28;20043;-72
2023/10/29 08:21:31;;;;;;;4.05;2.13;;;;;;;14.91;84.59;95434.84;4986327;28;20053;-70
2023/10/29 08:23:56;;;;;;;5.72;1.90;;;;;;;15.34;80.57;95449.72;4986406;28;20038;-70
2023/10/29 08:26:24;;;;;;;5.70;1.88;;;;;;;15.34;80.24;95452.47;4984475;28;20050;-70
2023/10/29 08:28:49;;;;;;;6.13;2.10;;;;;;;15.10;80.52;95460.06;4981700;28;20042;-69
2023/10/29 08:31:15;;;;;;;5.68;1.73;;;;;;;15.43;81.33;95444.38;4980018;28;20584;-71
2023/10/29 08:33:41;;;;;;;4.03;1.70;;;;;;;16.02;77.44;95464.69;4986414;28;20689;-73
2023/10/29 08:36:07;;;;;;;8.30;2.22;;;;;;;15.75;79.07;95462.19;4972734;28;20046;-73
2023/10/29 08:38:32;;;;;;;4.88;1.80;;;;;;;16.13;78.20;95461.66;5000322;28;20046;-71
2023/10/29 08:40:58;;;;;;;8.60;1.58;;;;;;;16.87;73.18;95454.59;4977803;28;20031;-70
2023/10/29 08:43:24;;;;;;;4.85;1.65;;;;;;;17.43;69.21;95449.81;4970685;28;20053;-71
2023/10/29 08:45:49;;;;;;;4.95;1.80;;;;;;;17.73;65.32;95457.56;4983725;28;20072;-72
2023/10/29 08:48:15;;;;;;;2.80;1.70;;;;;;;17.18;64.24;95460.41;4976499;28;20050;-70
2023/10/29 08:50:40;;;;;;;2.85;1.30;;;;;;;17.51;63.14;95462.22;4986915;28;20409;-70
2023/10/29 08:53:06;;;;;;;2.35;1.17;;;;;;;17.90;60.66;95457.47;4986785;28;20038;-73
2023/10/29 08:55:34;;;;;;;2.60;1.25;;;;;;;17.94;60.22;95460.91;5019699;28;20050;-71
2023/10/29 08:57:59;;;;;;;3.97;1.30;;;;;;;17.83;60.53;95458.44;4976838;28;20038;-70
2023/10/29 09:00:25;;;;;;;5.85;1.33;;;;;;;17.98;60.08;95463.56;4979187;28;20085;-70
2023/10/29 09:02:52;;;;;;;3.47;1.30;;;;;;;17.50;59.22;95458.69;4985332;28;20042;-71
2023/10/29 09:05:17;;;;;;;4.15;1.50;;;;;;;15.41;68.40;95457.03;4976601;28;20130;-73
2023/10/29 09:07:43;;;;;;;2.75;1.45;;;;;;;16.60;67.98;95457.66;4965957;28;20145;-71
2023/10/29 09:10:09;;;;;;;3.80;1.33;;;;;;;16.75;66.17;95460.84;4981834;28;20490;-72
2023/10/29 09:12:35;;;;;;;3.65;1.17;;;;;;;17.63;64.26;95467.00;4985854;28;20038;-71
2023/10/29 09:15:01;;;;;;;4.72;1.63;;;;;;;17.70;63.24;95466.75;4966301;28;20043;-71
2023/10/29 09:17:27;;;;;;;4.57;1.50;;;;;;;18.24;61.16;95464.25;4982700;28;20104;-73
2023/10/29 09:19:52;;;;;;;3.58;1.40;;;;;;;18.51;60.41;95458.19;4985562;28;20428;-71
2023/10/29 09:22:18;;;;;;;2.28;1.35;;;;;;;18.57;57.82;95450.09;4984867;28;20400;-71
2023/10/29 09:24:44;;;;;;;5.20;1.80;;;;;;;18.60;57.63;95461.06;4979721;28;20565;-72
2023/10/29 09:27:09;;;;;;;5.50;1.70;;;;;;;18.66;59.33;95456.47;4996529;28;20121;-72
2023/10/29 09:29:36;;;;;;;3.00;1.27;;;;;;;18.62;59.21;95455.03;4985687;28;20044;-73
2023/10/29 09:32:04;;;;;;;3.95;1.50;;;;;;;18.38;59.35;95440.84;4992008;28;20448;-76
2023/10/29 09:34:32;;;;;;;5.60;1.60;;;;;;;18.20;60.23;95449.75;4984173;28;20054;-71
2023/10/29 09:36:58;;;;;;;4.93;1.70;;;;;;;18.15;61.38;95454.66;4980090;28;20042;-72
2023/10/29 09:39:23;;;;;;;3.13;1.33;;;;;;;18.27;61.60;95444.75;4974856;28;20709;-71
2023/10/29 09:41:52;;;;;;;3.97;1.50;;;;;;;17.97;62.83;95451.72;4985708;28;20472;-71
2023/10/29 09:44:20;;;;;;;3.38;1.27;;;;;;;17.63;64.40;95447.59;4974396;28;20502;-72
2023/10/29 09:46:52;;;;;;;3.75;1.20;;;;;;;17.32;66.50;95458.44;4997094;28;20050;-72
2023/10/29 09:49:19;;;;;;;5.65;1.60;;;;;;;16.93;68.17;95443.78;4973572;28;20062;-73
2023/10/29 09:51:45;;;;;;;2.53;1.40;;;;;;;16.52;72.37;95443.28;4982370;28;20041;-71
2023/10/29 09:54:12;;;;;;;6.68;1.80;;;;;;;16.28;74.31;95442.75;4983970;28;20362;-71
2023/10/29 09:56:39;;;;;;;3.63;2.05;;;;;;;16.03;76.34;95437.84;5000280;28;20096;-74
2023/10/29 09:59:06;;;;;;;4.78;2.10;;;;;;;16.07;78.06;95432.25;4985640;28;20034;-78
2023/10/29 10:01:32;;;;;;;3.22;1.70;;;;;;;16.02;77.55;95434.28;4986915;28;20110;-72
2023/10/29 10:03:57;;;;;;;3.88;1.48;;;;;;;15.94;78.81;95438.47;4968907;28;20073;-72
2023/10/29 10:06:25;;;;;;;6.82;2.95;;;;;;;15.61;80.99;95429.38;4979227;28;20913;-70
2023/10/29 10:08:56;;;;;;;6.82;2.05;;;;;;;15.63;82.95;95444.31;4985421;28;20042;-68
2023/10/29 10:11:22;;;;;;;4.82;1.45;;;;;;;15.43;84.00;95430.56;4996372;28;20407;-71
2023/10/29 10:13:48;;;;;;;3.60;1.70;;;;;;;15.67;84.96;95441.47;4984171;28;20145;-70
2023/10/29 10:16:16;;;;;;;4.43;1.50;;;;;;;15.62;85.51;95437.22;4961535;28;20042;-69
2023/10/29 10:18:49;;;;;;;5.03;1.58;;;;;;;15.53;85.58;95450.06;4995972;28;20457;-72
2023/10/29 10:21:15;;;;;;;10.23;4.65;;;;;;;15.11;89.09;95450.59;4974573;28;20047;-69
2023/10/29 10:23:51;;;;;;;5.38;1.80;;;;;;;15.83;86.79;95451.75;4979528;28;20038;-69
2023/10/29 10:26:31;;;;;;;5.97;2.60;;;;;;;15.71;85.47;95444.13;4967440;28;20134;-72
2023/10/29 10:29:00;;;;;;;;;;;;;;;16.78;81.42;95446.13;5002071;28;20070;-68
2023/10/29 10:31:31;;;;;;;8.02;1.90;;;;;;;17.45;77.74;95450.13;4978427;28;19914;-68
2023/10/29 10:34:18;;;;;;;7.55;1.90;;;;;;;15.78;88.36;95444.00;4984237;28;20042;-69
2023/10/29 10:36:48;;;;;;;5.93;2.08;;;;;;;14.69;97.06;95430.97;4984179;28;20042;-67
2023/10/29 10:39:15;;;;;;;5.78;2.10;;;;;;;15.17;96.15;95426.81;4984288;28;20421;-66
2023/10/29 10:41:45;;;;;;;4.15;2.75;;;;;;;14.35;99.01;95412.72;4986638;28;20042;-70
2023/10/29 10:44:15;;;;;;;5.93;2.10;;;;;;;14.29;100.00;95406.91;4969904;28;20045;-70
2023/10/29 10:46:52;;;;;;;5.03;2.00;;;;;;;14.64;100.00;95410.22;4996403;28;20158;-69
2023/10/29 10:49:18;;;;;;;6.63;2.10;;;;;;;15.39;89.11;95409.78;4988482;28;20038;-70
2023/10/29 10:51:47;;;;;;;3.75;1.70;;;;;;;15.66;84.40;95406.78;4994777;28;20042;-70
2023/10/29 10:54:19;;;;;;;6.40;2.10;;;;;;;15.53;83.18;95409.44;4984060;28;20042;-72
2023/10/29 10:56:45;;;;;;;3.33;1.70;;;;;;;15.17;89.24;95399.25;4984092;28;20035;-70
2023/10/29 10:59:11;;;;;;;3.78;2.10;;;;;;;15.61;88.76;95388.75;4993600;28;20503;-70
2023/10/29 11:01:39;;;;;;;4.85;2.00;;;;;;;15.23;93.23;95381.00;4981848;28;20042;-70
2023/10/29 11:04:08;;;;;;;7.45;2.92;;;;;;;16.27;86.19;95388.69;4974956;28;20185;-72
2023/10/29 11:06:38;;;;;;;7.17;2.10;;;;;;;16.57;83.56;95387.47;4979022;28;20049;-70
2023/10/29 11:09:14;;;;;;;9.45;2.20;;;;;;;17.66;73.71;95393.31;4982233;28;20046;-73
2023/10/29 11:11:51;;;;;;;7.65;2.70;;;;;;;17.76;71.17;95387.44;4977155;28;20124;-69
2023/10/29 11:14:18;;;;;;;2.53;1.60;;;;;;;18.28;64.22;95388.09;4975165;28;20046;-71
2023/10/29 11:16:47;;;;;;;2.33;1.20;;;;;;;18.90;61.72;95368.06;4984663;28;20050;-70
2023/10/29 11:19:43;;;;;;;4.90;1.95;;;;;;;19.55;56.82;95384.22;4977999;28;20052;-69
2023/10/29 11:22:31;;;;;;;7.63;2.83;;;;;;;19.36;59.13;95375.84;4975849;28;20042;-69
2023/10/29 11:25:07;;;;;;;6.80;2.03;;;;;;;20.15;54.96;95377.41;4983425;28;20081;-70
2023/10/29 11:27:37;;;;;;;4.68;2.20;;;;;;;20.25;54.26;95376.19;4986335;28;20068;-70